Time;durP1;ratioP1;P1;durP2;ratioP2;P2;SDS_P1;SDS_P2;PMS_P1;PMS_P2;Temp;Humidity;BMP_temperature;BMP_pressure;BME280_temperature;BME280_humidity;BME280_pressure;Samples;Min_cycle;Max_cycle;Signal;HPM_P1;HPM_P2
2022/01/15 00:02:28;;;;;;;11.60;3.90;;;;;;;0.67;71.83;100576.91;105960;1276;138850;-70
2022/01/15 00:05:00;;;;;;;11.70;3.50;;;;;;;0.68;71.59;100577.95;106026;1276;112513;-71
2022/01/15 00:07:32;;;;;;;14.10;3.50;;;;;;;0.68;71.60;100570.94;105923;1275;138109;-71
2022/01/15 00:10:06;;;;;;;13.20;4.20;;;;;;;0.67;71.58;100574.52;105885;1276;109016;-70
2022/01/15 00:12:40;;;;;;;9.50;3.50;;;;;;;0.65;71.42;100577.06;105931;1276;97847;-72
2022/01/15 00:15:19;;;;;;;10.30;3.50;;;;;;;0.61;71.64;100573.94;105918;1276;137582;-72
2022/01/15 00:17:57;;;;;;;13.70;4.20;;;;;;;0.57;71.51;100585.02;105896;1276;111176;-71
2022/01/15 00:20:30;;;;;;;13.40;3.40;;;;;;;0.54;71.66;100582.75;105853;1276;138841;-69
2022/01/15 00:23:02;;;;;;;12.50;3.90;;;;;;;0.50;71.85;100586.96;105906;1276;108958;-71
2022/01/15 00:25:34;;;;;;;10.40;3.70;;;;;;;0.48;71.99;100586.92;105751;1276;138686;-71
2022/01/15 00:28:07;;;;;;;10.90;3.90;;;;;;;0.46;71.76;100581.78;105885;1276;97909;-71
2022/01/15 00:30:40;;;;;;;11.30;4.20;;;;;;;0.47;72.06;100586.23;105928;1276;112559;-71
2022/01/15 00:33:12;;;;;;;9.50;3.70;;;;;;;0.49;72.13;100587.11;105758;1276;137879;-71
2022/01/15 00:35:44;;;;;;;16.70;4.40;;;;;;;0.50;71.99;100579.94;105937;1276;107892;-71
2022/01/15 00:38:16;;;;;;;13.00;3.50;;;;;;;0.50;71.98;100577.02;105811;1276;138615;-72
2022/01/15 00:40:49;;;;;;;12.80;4.00;;;;;;;0.47;71.90;100580.08;105971;1276;97844;-70
2022/01/15 00:43:22;;;;;;;14.70;4.00;;;;;;;0.45;72.01;100568.92;105864;1276;138220;-72
2022/01/15 00:45:55;;;;;;;9.70;3.90;;;;;;;0.43;71.91;100565.14;105929;1275;108854;-71
2022/01/15 00:48:28;;;;;;;12.00;4.10;;;;;;;0.40;71.79;100568.36;105880;1276;108647;-71
2022/01/15 00:51:00;;;;;;;10.90;3.80;;;;;;;0.37;71.88;100564.36;105870;1276;139035;-69
2022/01/15 00:53:32;;;;;;;11.00;3.30;;;;;;;0.35;72.07;100574.24;105897;1276;97905;-71
2022/01/15 00:56:04;;;;;;;11.20;3.40;;;;;;;0.34;72.08;100576.46;105829;1276;138399;-70
2022/01/15 00:58:36;;;;;;;10.20;3.10;;;;;;;0.36;72.04;100571.53;105957;1276;106255;-71
2022/01/15 01:01:09;;;;;;;12.80;3.60;;;;;;;0.38;71.97;100572.77;105972;1276;108784;-72
2022/01/15 01:03:42;;;;;;;12.60;3.60;;;;;;;0.39;72.03;100573.30;105750;1276;137716;-71
2022/01/15 01:06:14;;;;;;;12.70;3.80;;;;;;;0.40;72.18;100577.08;105954;1276;97931;-69
2022/01/15 01:08:46;;;;;;;13.40;3.60;;;;;;;0.39;72.15;100581.52;105769;1275;137689;-70
2022/01/15 01:11:28;;;;;;;13.10;3.40;;;;;;;0.36;72.20;100577.71;106006;1276;109220;-71
2022/01/15 01:25:20;;;;;;;13.60;3.40;;;;;;;0.21;72.55;100602.45;105870;1276;138918;-71
2022/01/15 01:27:56;;;;;;;12.70;4.10;;;;;;;0.21;72.87;100602.29;105925;1276;109302;-70
2022/01/15 01:30:34;;;;;;;11.20;4.00;;;;;;;0.22;72.89;100598.70;105883;1276;97872;-71
2022/01/15 01:33:30;;;;;;;15.40;4.50;;;;;;;0.22;72.87;100609.83;105765;1276;138669;-71
2022/01/15 01:36:17;;;;;;;16.40;4.30;;;;;;;0.20;72.97;100609.28;105877;1276;112495;-71
2022/01/15 01:38:52;;;;;;;;;;;;;;;0.18;73.02;100607.86;105850;1276;137930;-71
2022/01/15 01:41:34;;;;;;;14.70;4.00;;;;;;;0.14;73.12;100598.56;105953;1276;108870;-71
2022/01/15 01:44:09;;;;;;;16.10;4.70;;;;;;;0.13;73.38;100605.89;105822;1276;138310;-71
2022/01/15 01:46:48;;;;;;;15.90;4.60;;;;;;;0.09;73.46;100610.28;105909;1276;97850;-71
2022/01/15 01:49:21;;;;;;;11.80;4.10;;;;;;;0.05;73.57;100606.63;105831;1276;138058;-70
2022/01/15 01:51:53;;;;;;;16.80;3.90;;;;;;;0.01;73.67;100601.80;105911;1276;108599;-71
2022/01/15 01:54:25;;;;;;;18.20;5.20;;;;;;;-0.02;73.96;100599.85;105952;1276;108788;-70
2022/01/15 01:56:57;;;;;;;15.70;3.90;;;;;;;-0.02;73.93;100602.40;105774;1276;140271;-71
2022/01/15 01:59:30;;;;;;;11.90;4.10;;;;;;;-0.02;74.06;100594.38;105920;1276;98229;-70
2022/01/15 02:02:03;;;;;;;11.20;4.20;;;;;;;-0.02;74.19;100599.67;105838;1276;138074;-71
2022/01/15 02:04:35;;;;;;;15.10;5.00;;;;;;;-0.01;74.26;100607.39;105952;1276;107815;-70
2022/01/15 02:07:08;;;;;;;14.20;4.60;;;;;;;0.00;74.28;100603.82;105865;1276;108801;-70
2022/01/15 02:09:40;;;;;;;15.20;5.20;;;;;;;-0.02;74.47;100605.48;105797;1276;139026;-70
2022/01/15 02:12:12;;;;;;;20.70;5.60;;;;;;;-0.05;74.49;100607.14;105988;1275;98758;-70
2022/01/15 02:14:44;;;;;;;15.60;5.10;;;;;;;-0.08;74.61;100603.00;105843;1276;138627;-70
2022/01/15 02:17:20;;;;;;;14.00;4.60;;;;;;;-0.14;74.66;100598.64;105973;1275;108028;-71
2022/01/15 02:20:11;;;;;;;17.00;4.20;;;;;;;-0.18;74.74;100599.25;105886;1276;139733;-70
2022/01/15 02:25:44;;;;;;;15.30;4.30;;;;;;;-0.21;75.10;100585.52;105869;1275;139393;-71
2022/01/15 02:28:18;;;;;;;18.80;5.20;;;;;;;-0.20;75.17;100583.81;107547;1276;112366;-71
2022/01/15 02:30:53;;;;;;;15.00;4.50;;;;;;;-0.19;75.33;100581.61;105852;1275;109072;-72
2022/01/15 02:33:27;;;;;;;16.50;4.60;;;;;;;-0.17;75.57;100587.82;105862;1276;138038;-72
2022/01/15 02:35:59;;;;;;;20.70;5.00;;;;;;;-0.16;75.39;100595.36;105964;1276;98156;-72
2022/01/15 02:38:31;;;;;;;17.80;5.10;;;;;;;-0.18;75.45;100592.74;105849;1276;137988;-72
2022/01/15 02:41:04;;;;;;;14.70;4.60;;;;;;;-0.21;75.46;100593.90;105958;1276;112270;-71
2022/01/15 02:43:36;;;;;;;19.60;5.20;;;;;;;-0.24;75.64;100593.33;105831;1276;138531;-71
2022/01/15 02:46:22;;;;;;;14.20;3.70;;;;;;;-0.27;75.50;100591.91;105903;1276;109095;-70
2022/01/15 02:48:57;;;;;;;11.20;3.80;;;;;;;-0.30;75.56;100592.55;105936;1276;97858;-71
2022/01/15 02:51:31;;;;;;;10.10;3.60;;;;;;;-0.32;75.81;100595.77;105856;1274;140255;-71
2022/01/15 02:54:04;;;;;;;15.40;3.80;;;;;;;-0.33;75.79;100587.73;105937;1276;111059;-71
2022/01/15 02:56:38;;;;;;;11.40;3.80;;;;;;;-0.31;75.86;100591.51;105856;1276;138497;-70
2022/01/15 02:59:18;;;;;;;13.70;3.70;;;;;;;-0.31;75.99;100585.70;105988;1276;108880;-71
2022/01/15 03:01:50;;;;;;;16.50;4.20;;;;;;;-0.29;76.10;100586.42;105830;1275;138924;-70
2022/01/15 03:04:22;;;;;;;19.80;5.00;;;;;;;-0.29;76.01;100587.45;105970;1276;97843;-69
2022/01/15 03:06:54;;;;;;;19.50;4.60;;;;;;;-0.32;76.00;100589.96;105935;1274;112770;-70
2022/01/15 03:09:26;;;;;;;15.20;4.40;;;;;;;-0.35;75.96;100589.91;105877;1276;138163;-70
2022/01/15 03:12:02;;;;;;;14.50;4.00;;;;;;;-0.38;76.04;100591.54;105944;1276;108778;-71
2022/01/15 03:14:34;;;;;;;12.10;3.90;;;;;;;-0.41;75.99;100597.48;105930;1274;139370;-70
2022/01/15 03:17:07;;;;;;;13.00;3.60;;;;;;;-0.42;76.28;100593.52;105877;1276;97837;-70
2022/01/15 03:19:46;;;;;;;12.80;4.00;;;;;;;-0.43;76.24;100591.45;105825;1276;138997;-70
2022/01/15 03:22:18;;;;;;;15.40;3.70;;;;;;;-0.43;76.44;100598.63;106005;1276;108041;-70
2022/01/15 03:24:52;;;;;;;12.70;4.20;;;;;;;-0.42;76.29;100599.33;105990;1276;108928;-71
2022/01/15 03:27:24;;;;;;;17.80;4.20;;;;;;;-0.43;76.49;100597.60;105807;1276;139419;-70
2022/01/15 03:29:56;;;;;;;16.80;4.80;;;;;;;-0.46;76.52;100597.73;105931;1276;97826;-70
2022/01/15 03:32:29;;;;;;;17.90;5.20;;;;;;;-0.48;76.68;100597.86;105845;1276;138001;-69
2022/01/15 03:35:01;;;;;;;16.60;4.50;;;;;;;-0.50;76.73;100598.00;105928;1275;107862;-70
2022/01/15 03:37:33;;;;;;;15.80;4.60;;;;;;;-0.54;76.79;100603.73;105789;1276;138378;-70
2022/01/15 03:40:06;;;;;;;14.70;4.80;;;;;;;-0.59;76.79;100598.17;105746;1279;97969;-70
2022/01/15 03:42:39;;;;;;;19.30;4.40;;;;;;;-0.61;77.07;100602.07;107447;1276;96073;-70
2022/01/15 03:45:14;;;;;;;16.90;4.80;;;;;;;-0.64;76.86;100599.80;107446;1275;139516;-70
2022/01/15 03:47:47;;;;;;;15.50;4.70;;;;;;;-0.64;77.23;100602.02;107594;1276;108646;-70
2022/01/15 03:50:20;;;;;;;15.90;4.70;;;;;;;-0.65;77.11;100605.41;106289;1275;138580;-70
2022/01/15 03:52:53;;;;;;;15.80;4.90;;;;;;;-0.65;77.25;100608.66;105939;1276;98614;-70
2022/01/15 03:55:26;;;;;;;16.60;4.50;;;;;;;-0.66;77.38;100614.11;105921;1275;138126;-71
2022/01/15 03:58:00;;;;;;;19.50;5.10;;;;;;;-0.68;77.36;100614.08;106030;1276;112434;-71
2022/01/15 04:00:32;;;;;;;17.60;5.30;;;;;;;-0.70;77.28;100610.79;105909;1276;108964;-70
2022/01/15 04:03:04;;;;;;;18.10;5.00;;;;;;;-0.74;77.52;100615.64;105788;1276;138359;-69
2022/01/15 04:05:36;;;;;;;15.60;4.80;;;;;;;-0.78;77.52;100620.36;105957;1276;97846;-69
2022/01/15 04:08:10;;;;;;;15.40;4.50;;;;;;;-0.78;77.87;100617.28;105776;1276;138780;-70
2022/01/15 04:10:42;;;;;;;14.80;4.90;;;;;;;-0.78;77.70;100622.40;106002;1276;112603;-70
2022/01/15 04:13:15;;;;;;;16.80;5.30;;;;;;;-0.78;77.68;100617.44;105988;1276;108865;-70
2022/01/15 04:15:51;;;;;;;18.60;5.30;;;;;;;-0.78;77.61;100614.36;105864;1275;139200;-70
2022/01/15 04:18:23;;;;;;;15.90;5.20;;;;;;;-0.80;77.68;100619.63;105826;1276;97880;-70
2022/01/15 04:20:56;;;;;;;18.40;5.90;;;;;;;-0.82;77.83;100623.86;105898;1276;138943;-70
2022/01/15 04:23:28;;;;;;;18.30;5.40;;;;;;;-0.85;77.83;100634.56;105910;1276;110746;-70
2022/01/15 04:26:00;;;;;;;16.20;5.60;;;;;;;-0.88;77.78;100635.52;105835;1275;138478;-70
2022/01/15 04:28:34;;;;;;;15.10;4.90;;;;;;;-0.93;77.82;100640.88;105875;1275;108796;-70
2022/01/15 04:31:07;;;;;;;17.10;4.70;;;;;;;-0.97;78.17;100640.45;105974;1274;97853;-71
2022/01/15 04:33:39;;;;;;;17.10;4.90;;;;;;;-0.99;78.13;100642.64;105845;1276;138356;-71
2022/01/15 04:36:11;;;;;;;16.30;4.50;;;;;;;-0.99;78.33;100642.96;105956;1274;111571;-70
2022/01/15 04:38:48;;;;;;;18.50;4.40;;;;;;;-0.99;78.04;100644.69;105806;1276;141860;-70
2022/01/15 04:41:20;;;;;;;16.30;4.50;;;;;;;-0.97;78.40;100644.37;105901;1276;112294;-71
2022/01/15 04:43:52;;;;;;;17.50;5.30;;;;;;;-0.97;78.22;100647.96;105842;1276;138231;-70
2022/01/15 04:46:24;;;;;;;18.10;6.00;;;;;;;-0.96;78.43;100646.11;106029;1275;97958;-71
2022/01/15 04:48:56;;;;;;;20.10;5.20;;;;;;;-0.96;78.21;100644.23;106048;1276;112743;-71
2022/01/15 04:51:28;;;;;;;17.60;5.10;;;;;;;-0.98;78.52;100647.60;105901;1276;138539;-70
2022/01/15 04:54:00;;;;;;;19.40;5.80;;;;;;;-1.00;78.43;100648.41;106026;1275;108989;-71
2022/01/15 04:56:33;;;;;;;20.70;5.30;;;;;;;-1.04;78.40;100651.23;105877;1274;138281;-70
2022/01/15 04:59:05;;;;;;;18.30;5.40;;;;;;;-1.08;78.38;100655.23;105989;1276;97864;-69
2022/01/15 05:01:37;;;;;;;20.90;5.30;;;;;;;-1.09;78.58;100666.11;105869;1276;139225;-70
2022/01/15 05:04:09;;;;;;;17.30;4.90;;;;;;;-1.09;78.49;100676.02;105973;1276;109234;-70
2022/01/15 05:06:41;;;;;;;13.20;4.40;;;;;;;-1.07;78.59;100674.54;105961;1276;108877;-70
2022/01/15 05:09:13;;;;;;;16.20;5.20;;;;;;;-1.05;78.53;100677.32;105813;1276;138433;-70
2022/01/15 05:11:47;;;;;;;20.80;5.30;;;;;;;-1.03;78.60;100680.27;105925;1276;97925;-70
2022/01/15 05:14:20;;;;;;;22.50;5.60;;;;;;;-1.03;78.58;100687.95;105803;1276;138043;-70
2022/01/15 05:16:52;;;;;;;15.60;5.60;;;;;;;-1.02;78.81;100698.20;105896;1276;108895;-70
2022/01/15 05:19:24;;;;;;;18.60;5.50;;;;;;;-1.04;78.31;100699.89;105733;1276;138214;-70
2022/01/15 05:21:57;;;;;;;16.40;5.20;;;;;;;-1.07;78.69;100696.90;105856;1276;97839;-71
2022/01/15 05:24:31;;;;;;;11.60;4.50;;;;;;;-1.10;78.71;100702.61;105954;1276;97836;-70
2022/01/15 05:27:03;;;;;;;15.30;4.90;;;;;;;-1.12;78.94;100704.45;105770;1276;138553;-70
2022/01/15 05:29:35;;;;;;;18.00;4.60;;;;;;;-1.13;78.58;100706.30;105894;1276;109047;-70
2022/01/15 05:32:09;;;;;;;16.20;4.40;;;;;;;-1.12;78.83;100709.23;105858;1276;138864;-70
2022/01/15 05:34:43;;;;;;;12.50;4.60;;;;;;;-1.10;78.91;100708.44;105920;1276;97876;-70
2022/01/15 05:37:15;;;;;;;19.50;6.00;;;;;;;-1.07;78.78;100714.30;105905;1276;97989;-71
2022/01/15 05:39:47;;;;;;;15.40;5.30;;;;;;;-1.05;78.99;100711.30;105818;1276;137838;-71
2022/01/15 05:42:19;;;;;;;18.00;5.20;;;;;;;-1.04;78.97;100709.26;105880;1276;107821;-71
2022/01/15 05:44:50;;;;;;;15.90;5.40;;;;;;;-1.06;79.04;100707.66;105832;1275;138312;-70
2022/01/15 05:47:26;;;;;;;12.70;4.30;;;;;;;-1.08;79.04;100714.28;105967;1276;97841;-70
2022/01/15 05:49:58;;;;;;;18.20;5.00;;;;;;;-1.11;78.92;100717.10;105854;1276;138189;-71
2022/01/15 05:52:30;;;;;;;13.20;4.60;;;;;;;-1.13;79.06;100716.71;106048;1276;112513;-70
2022/01/15 05:55:02;;;;;;;15.30;4.40;;;;;;;-1.14;79.13;100717.89;105906;1276;107861;-69
2022/01/15 05:57:34;;;;;;;14.00;4.30;;;;;;;-1.14;79.10;100719.77;105789;1276;138783;-70
2022/01/15 06:00:09;;;;;;;13.90;4.10;;;;;;;-1.13;79.10;100712.98;105945;1275;97509;-69
2022/01/15 06:02:46;;;;;;;11.30;3.40;;;;;;;-1.10;78.99;100714.56;105846;1276;138321;-70
2022/01/15 06:05:18;;;;;;;15.70;4.60;;;;;;;-1.07;79.15;100712.09;106031;1276;112457;-70
2022/01/15 06:07:50;;;;;;;13.70;4.70;;;;;;;-1.05;79.03;100711.29;105819;1278;138962;-71
2022/01/15 06:10:22;;;;;;;18.70;5.30;;;;;;;-1.05;78.82;100711.98;105872;1277;108603;-70
2022/01/15 06:12:54;;;;;;;13.30;4.90;;;;;;;-1.07;78.96;100719.95;105927;1277;97922;-70
2022/01/15 06:15:26;;;;;;;17.70;4.70;;;;;;;-1.08;78.95;100721.60;105886;1276;137887;-70
2022/01/15 06:17:58;;;;;;;13.90;4.30;;;;;;;-1.12;79.04;100719.48;105753;1278;111502;-70
2022/01/15 06:20:31;;;;;;;14.20;3.90;;;;;;;-1.14;78.93;100722.83;105826;1277;140006;-70
2022/01/15 06:23:02;;;;;;;14.50;4.50;;;;;;;-1.16;79.04;100719.23;105910;1277;108748;-71
2022/01/15 06:25:34;;;;;;;14.00;4.20;;;;;;;-1.15;79.05;100726.56;105740;1276;139951;-69
2022/01/15 06:28:06;;;;;;;15.80;4.90;;;;;;;-1.13;79.14;100727.64;105913;1277;97848;-72
2022/01/15 06:30:38;;;;;;;14.90;4.60;;;;;;;-1.12;79.15;100731.77;105884;1277;112210;-70
2022/01/15 06:33:10;;;;;;;14.60;5.10;;;;;;;-1.11;79.24;100739.97;105836;1276;138322;-71
2022/01/15 06:35:42;;;;;;;15.10;4.90;;;;;;;-1.11;79.11;100738.27;105952;1276;108883;-70
2022/01/15 06:38:14;;;;;;;18.30;5.90;;;;;;;-1.12;79.07;100742.86;105805;1276;138029;-70
2022/01/15 06:40:46;;;;;;;13.80;4.90;;;;;;;-1.12;79.32;100739.79;105940;1278;97693;-70
2022/01/15 06:43:18;;;;;;;16.10;5.20;;;;;;;-1.13;79.08;100736.67;105887;1277;110855;-70
2022/01/15 06:45:50;;;;;;;14.30;4.50;;;;;;;-1.15;78.98;100737.50;105726;1277;138512;-70
2022/01/15 06:48:22;;;;;;;14.30;4.10;;;;;;;-1.13;79.35;100737.70;105860;1276;107773;-69
2022/01/15 06:50:54;;;;;;;16.10;4.30;;;;;;;-1.10;79.26;100738.79;105745;1277;138917;-69
2022/01/15 06:53:26;;;;;;;14.60;4.00;;;;;;;-1.08;79.29;100740.58;105885;1277;98735;-68
2022/01/15 06:55:58;;;;;;;16.60;5.00;;;;;;;-1.03;79.08;100748.36;105770;1277;138490;-70
2022/01/15 06:58:30;;;;;;;14.90;4.80;;;;;;;-1.00;79.12;100742.63;105917;1275;108096;-70
2022/01/15 07:01:03;;;;;;;13.90;5.00;;;;;;;-0.94;79.03;100744.98;105842;1277;109010;-70
2022/01/15 07:03:35;;;;;;;17.50;5.30;;;;;;;-0.92;79.15;100746.73;105890;1276;138860;-69
2022/01/15 07:06:07;;;;;;;24.80;5.80;;;;;;;-0.88;79.05;100749.89;105889;1276;97845;-70
2022/01/15 07:08:39;;;;;;;18.30;4.80;;;;;;;-0.82;79.08;100761.11;105870;1275;137786;-70
2022/01/15 07:11:11;;;;;;;20.30;5.30;;;;;;;-0.74;79.26;100770.17;106008;1278;108871;-70
2022/01/15 07:13:43;;;;;;;14.90;5.10;;;;;;;-0.62;78.93;100776.58;105872;1274;138345;-70
2022/01/15 07:16:15;;;;;;;13.20;4.50;;;;;;;-0.47;78.95;100775.36;105949;1275;97853;-70
2022/01/15 07:18:47;;;;;;;16.20;4.50;;;;;;;-0.29;78.76;100774.70;105986;1275;97878;-70
2022/01/15 07:21:19;;;;;;;12.50;4.30;;;;;;;-0.10;78.49;100770.13;105898;1274;138634;-70
2022/01/15 07:23:52;;;;;;;12.60;4.50;;;;;;;0.12;78.36;100768.14;105965;1274;108800;-70
2022/01/15 07:26:24;;;;;;;17.90;5.40;;;;;;;0.33;77.93;100769.73;105826;1274;139275;-70
2022/01/15 07:28:57;;;;;;;17.80;5.20;;;;;;;0.54;77.77;100774.89;105993;1274;97953;-71
2022/01/15 07:31:29;;;;;;;16.70;5.30;;;;;;;0.76;77.49;100772.49;105847;1274;139091;-71
2022/01/15 07:34:03;;;;;;;20.20;5.70;;;;;;;0.97;76.85;100775.91;106004;1274;113641;-71
2022/01/15 07:36:35;;;;;;;18.20;5.40;;;;;;;1.14;76.64;100778.92;105942;1274;108926;-70
2022/01/15 07:39:08;;;;;;;14.40;5.10;;;;;;;1.36;76.27;100777.18;105834;1274;138072;-71
2022/01/15 07:41:40;;;;;;;16.80;5.70;;;;;;;1.58;75.69;100779.52;105925;1274;97861;-71
2022/01/15 07:44:12;;;;;;;15.20;5.10;;;;;;;1.78;75.47;100783.89;105865;1274;138385;-71
2022/01/15 07:46:44;;;;;;;13.20;5.40;;;;;;;1.93;75.15;100784.56;105938;1276;112203;-70
2022/01/15 07:49:16;;;;;;;16.60;5.90;;;;;;;2.12;74.92;100782.90;105888;1276;109190;-71
2022/01/15 07:51:48;;;;;;;19.70;6.00;;;;;;;2.30;74.29;100786.85;105881;1277;138875;-71
2022/01/15 07:54:20;;;;;;;15.70;6.70;;;;;;;2.43;73.73;100788.36;106052;1274;97848;-71
2022/01/15 07:56:54;;;;;;;17.40;6.20;;;;;;;2.58;73.59;100788.84;105897;1274;137620;-71
2022/01/15 07:59:28;;;;;;;15.90;5.50;;;;;;;2.78;73.07;100791.08;106077;1276;112470;-71
2022/01/15 08:02:00;;;;;;;16.50;5.70;;;;;;;2.93;72.88;100798.41;105815;1275;139180;-69
2022/01/15 08:04:32;;;;;;;17.70;4.90;;;;;;;3.12;72.57;100795.28;107433;1275;108889;-71
2022/01/15 08:07:04;;;;;;;22.20;5.80;;;;;;;3.39;72.23;100795.97;107533;1275;96946;-71
2022/01/15 08:09:37;;;;;;;14.90;5.70;;;;;;;3.58;71.38;100790.74;107443;1274;137951;-71
2022/01/15 08:12:11;;;;;;;17.70;5.60;;;;;;;3.77;71.25;100789.61;107555;1274;111543;-72
2022/01/15 08:14:43;;;;;;;16.10;5.50;;;;;;;3.96;70.78;100783.51;106800;1276;138087;-71
2022/01/15 08:17:15;;;;;;;15.40;5.50;;;;;;;4.14;70.10;100785.98;105884;1276;107668;-71
2022/01/15 08:19:47;;;;;;;17.20;6.10;;;;;;;4.31;69.52;100787.73;105704;1276;138774;-72
2022/01/15 08:22:19;;;;;;;23.40;6.50;;;;;;;4.51;69.71;100792.92;105787;1277;97877;-72
2022/01/15 08:24:51;;;;;;;16.50;5.60;;;;;;;4.76;69.46;100798.46;105997;1274;112089;-72
2022/01/15 08:27:23;;;;;;;18.20;5.40;;;;;;;4.93;68.71;100804.84;105856;1274;137972;-71
2022/01/15 08:29:55;;;;;;;13.00;5.40;;;;;;;5.08;68.28;100813.09;105972;1276;108974;-73
2022/01/15 08:32:27;;;;;;;14.60;4.90;;;;;;;5.33;68.10;100808.76;105811;1276;138669;-73
2022/01/15 08:34:59;;;;;;;12.40;4.60;;;;;;;5.56;67.60;100801.63;105981;1274;97883;-70
2022/01/15 08:37:31;;;;;;;14.00;5.30;;;;;;;5.78;66.98;100800.35;105840;1275;139327;-72
2022/01/15 08:40:03;;;;;;;15.90;4.90;;;;;;;6.02;66.85;100795.63;105892;1277;109237;-72
2022/01/15 08:42:36;;;;;;;14.20;5.10;;;;;;;6.28;65.87;100796.52;105904;1276;109670;-71
2022/01/15 08:45:11;;;;;;;13.70;5.00;;;;;;;6.50;65.54;100793.43;105760;1277;138412;-72
2022/01/15 08:47:43;;;;;;;13.20;4.50;;;;;;;6.74;65.24;100789.81;105902;1276;98340;-71
2022/01/15 08:50:17;;;;;;;18.40;5.90;;;;;;;6.93;64.24;100791.73;105846;1276;137800;-72
2022/01/15 08:52:49;;;;;;;17.10;5.70;;;;;;;7.07;64.12;100791.95;106027;1276;108524;-73
2022/01/15 08:55:21;;;;;;;14.90;5.40;;;;;;;7.20;63.69;100793.57;105882;1277;107464;-72
2022/01/15 08:57:53;;;;;;;15.60;6.00;;;;;;;7.30;63.27;100787.92;105723;1275;138693;-73
2022/01/15 09:00:27;;;;;;;17.30;5.20;;;;;;;7.33;62.31;100786.33;105969;1274;97848;-73
2022/01/15 09:02:59;;;;;;;15.60;5.50;;;;;;;7.35;61.26;100786.30;105840;1273;137973;-73
2022/01/15 09:05:34;;;;;;;17.30;5.70;;;;;;;7.37;61.67;100790.29;105954;1275;108822;-73
2022/01/15 09:08:08;;;;;;;13.60;5.50;;;;;;;7.43;61.51;100796.45;105779;1274;138506;-72
2022/01/15 09:10:42;;;;;;;15.50;5.10;;;;;;;7.56;61.24;100797.16;105907;1276;97916;-73
2022/01/15 09:13:14;;;;;;;15.90;5.40;;;;;;;7.73;60.21;100796.81;105958;1276;97849;-73
2022/01/15 09:15:46;;;;;;;13.40;5.60;;;;;;;7.75;60.26;100804.57;105813;1274;137790;-72
2022/01/15 09:18:18;;;;;;;13.70;5.40;;;;;;;7.85;60.22;100810.50;105950;1276;109011;-73
2022/01/15 09:20:51;;;;;;;15.00;5.40;;;;;;;7.98;59.91;100816.58;105805;1277;138101;-72
2022/01/15 09:23:23;;;;;;;14.50;5.10;;;;;;;7.97;59.29;100820.23;105895;1275;97854;-72
2022/01/15 09:25:57;;;;;;;16.80;5.50;;;;;;;7.84;58.83;100819.33;105877;1276;138017;-72
2022/01/15 09:31:18;;;;;;;16.80;5.80;;;;;;;7.92;59.62;100823.92;105989;1275;108415;-73
2022/01/15 09:33:51;;;;;;;19.60;5.50;;;;;;;8.18;59.30;100823.42;105832;1276;138997;-73
2022/01/15 09:36:22;;;;;;;13.20;5.60;;;;;;;8.45;59.33;100827.77;105926;1276;98363;-73
2022/01/15 09:38:55;;;;;;;13.30;4.90;;;;;;;8.74;59.04;100829.41;105807;1275;137881;-73
2022/01/15 09:41:27;;;;;;;16.40;5.80;;;;;;;8.85;58.44;100826.83;106027;1276;112537;-73
2022/01/15 09:44:00;;;;;;;13.20;5.10;;;;;;;8.84;58.10;100830.66;105876;1276;138298;-72
2022/01/15 09:46:34;;;;;;;16.10;5.70;;;;;;;8.71;57.26;100825.64;105919;1276;107920;-72
2022/01/15 09:49:07;;;;;;;16.20;5.00;;;;;;;8.59;57.26;100820.45;105908;1276;97926;-71
2022/01/15 09:51:39;;;;;;;14.10;5.40;;;;;;;8.41;55.86;100811.17;105845;1276;138150;-72
2022/01/15 09:54:11;;;;;;;14.00;4.70;;;;;;;8.18;55.86;100814.58;105976;1276;111184;-71
2022/01/15 09:56:44;;;;;;;14.60;5.70;;;;;;;8.01;57.01;100824.52;105873;1276;138943;-70
2022/01/15 09:59:16;;;;;;;16.60;5.10;;;;;;;7.83;56.99;100830.27;105998;1276;109127;-73
2022/01/15 10:01:48;;;;;;;15.00;4.90;;;;;;;7.61;56.57;100827.91;105915;1276;139326;-73
2022/01/15 10:04:21;;;;;;;13.00;4.90;;;;;;;7.26;57.33;100832.58;105836;1277;97922;-72
2022/01/15 10:07:11;;;;;;;17.30;5.70;;;;;;;6.97;57.90;100835.09;105947;1276;112477;-72
2022/01/15 10:09:45;;;;;;;12.70;5.20;;;;;;;6.74;58.08;100838.03;105887;1275;140015;-72
2022/01/15 10:12:28;;;;;;;19.20;5.20;;;;;;;6.51;58.56;100844.91;106049;1274;109335;-71
2022/01/15 10:15:04;;;;;;;17.40;5.90;;;;;;;6.34;59.11;100844.67;105846;1274;139148;-72
2022/01/15 10:17:39;;;;;;;14.10;5.60;;;;;;;6.27;59.45;100847.64;105855;1275;98187;-70
2022/01/15 10:20:13;;;;;;;15.30;5.70;;;;;;;6.27;59.40;100838.30;105885;1274;138098;-72
2022/01/15 10:22:47;;;;;;;18.30;6.00;;;;;;;6.29;59.34;100828.64;105899;1276;109737;-72
2022/01/15 10:25:23;;;;;;;15.40;5.50;;;;;;;6.17;59.32;100827.84;105967;1274;108508;-71
2022/01/15 10:27:56;;;;;;;18.20;6.30;;;;;;;6.18;59.56;100829.39;105955;1275;137943;-72
2022/01/15 10:30:30;;;;;;;19.50;6.70;;;;;;;6.32;59.73;100829.14;105984;1274;97844;-71
2022/01/15 10:33:05;;;;;;;16.10;6.20;;;;;;;6.33;59.12;100831.03;105845;1276;138626;-72
2022/01/15 10:35:39;;;;;;;17.20;5.90;;;;;;;6.32;59.55;100844.35;106009;1275;108949;-71
2022/01/15 10:38:13;;;;;;;19.60;6.20;;;;;;;6.46;59.70;100851.86;105808;1275;138160;-71
2022/01/15 10:40:46;;;;;;;19.70;6.20;;;;;;;6.58;59.82;100859.73;105948;1274;97854;-72
2022/01/15 10:43:30;;;;;;;17.30;5.90;;;;;;;6.57;59.16;100862.16;106059;1274;97816;-73
2022/01/15 10:46:03;;;;;;;14.00;5.30;;;;;;;6.52;59.49;100860.80;105859;1274;137689;-70
2022/01/15 10:48:37;;;;;;;15.20;5.70;;;;;;;6.47;59.42;100865.50;106001;1274;108783;-71
2022/01/15 10:51:11;;;;;;;15.30;5.80;;;;;;;6.25;58.88;100866.48;105856;1275;138262;-70
2022/01/15 10:53:46;;;;;;;17.50;5.70;;;;;;;5.99;59.06;100867.79;105955;1276;97895;-71
2022/01/15 10:56:19;;;;;;;19.30;6.10;;;;;;;5.80;59.42;100871.44;106113;1275;138512;-70
2022/01/15 10:59:10;;;;;;;14.10;5.10;;;;;;;5.68;59.49;100867.15;105930;1275;112461;-71
2022/01/15 11:01:42;;;;;;;13.90;5.00;;;;;;;5.48;59.44;100867.88;105843;1274;138052;-70
2022/01/15 11:04:21;;;;;;;17.70;5.60;;;;;;;5.28;60.12;100869.63;106024;1274;108789;-71
2022/01/15 11:06:53;;;;;;;16.80;5.30;;;;;;;5.09;60.35;100875.33;105969;1274;98128;-71
2022/01/15 11:09:36;;;;;;;16.20;5.00;;;;;;;4.99;60.84;100887.03;105868;1276;137792;-71
2022/01/15 11:12:10;;;;;;;16.10;5.50;;;;;;;4.85;61.19;100891.67;105989;1275;111932;-71
2022/01/15 11:14:42;;;;;;;16.90;5.50;;;;;;;4.74;61.39;100892.00;106100;1274;139461;-71
2022/01/15 11:17:15;;;;;;;16.00;5.30;;;;;;;4.59;61.32;100896.45;105948;1276;108023;-73
2022/01/15 11:19:51;;;;;;;15.90;5.30;;;;;;;4.50;62.07;100900.91;105861;1274;138552;-72
2022/01/15 11:22:25;;;;;;;15.80;5.60;;;;;;;4.57;62.50;100892.48;105865;1276;97860;-71
2022/01/15 11:24:57;;;;;;;16.70;4.70;;;;;;;4.68;62.54;100884.41;105952;1276;111228;-72
2022/01/15 11:27:31;;;;;;;21.80;5.80;;;;;;;4.71;62.31;100889.59;105883;1275;137953;-72
2022/01/15 11:30:04;;;;;;;18.60;5.50;;;;;;;4.72;62.51;100897.52;105924;1275;108445;-71
2022/01/15 11:32:36;;;;;;;18.60;5.30;;;;;;;4.63;62.34;100900.40;105788;1275;139476;-71
2022/01/15 11:35:10;;;;;;;17.10;4.90;;;;;;;4.52;62.14;100903.48;105958;1274;98272;-71
2022/01/15 11:37:49;;;;;;;17.90;5.10;;;;;;;4.38;62.43;100905.68;105851;1274;138417;-71
2022/01/15 11:40:39;;;;;;;16.00;5.40;;;;;;;4.31;62.83;100904.78;105856;1275;109121;-73
2022/01/15 11:43:42;;;;;;;17.10;5.40;;;;;;;4.20;62.92;100904.75;105924;1276;109054;-71
2022/01/15 11:46:30;;;;;;;16.90;5.60;;;;;;;4.09;62.99;100902.96;105884;1276;138943;-73
2022/01/15 11:49:30;;;;;;;14.60;4.80;;;;;;;3.97;62.85;100901.38;105969;1275;97933;-70
2022/01/15 11:52:31;;;;;;;14.30;5.00;;;;;;;3.94;63.36;100899.61;105795;1276;137873;-71
2022/01/15 11:55:18;;;;;;;14.40;5.10;;;;;;;4.09;63.53;100891.61;105904;1275;108879;-72